createdAt,value
2022-10-08T00:02:03.393Z,15.95
2022-10-08T00:04:36.169Z,15.94
2022-10-08T00:07:09.171Z,15.90
2022-10-08T00:09:43.621Z,16.06
2022-10-08T00:12:16.497Z,16.15
2022-10-08T00:14:52.702Z,16.11
2022-10-08T00:17:24.550Z,16.05
2022-10-08T00:20:00.410Z,16.03
2022-10-08T00:22:35.028Z,16.06
2022-10-08T00:25:10.187Z,16.03
2022-10-08T00:27:44.170Z,16.00
2022-10-08T00:30:19.838Z,16.03
2022-10-08T00:32:57.709Z,16.02
2022-10-08T00:35:31.887Z,16.05
2022-10-08T00:38:07.827Z,16.07
2022-10-08T00:40:47.962Z,16.08
2022-10-08T00:43:37.212Z,16.10
2022-10-08T00:46:11.332Z,16.08
2022-10-08T00:48:44.923Z,16.05
2022-10-08T00:51:17.187Z,15.88
2022-10-08T00:53:50.940Z,15.85
2022-10-08T00:56:23.342Z,15.82
2022-10-08T00:58:58.097Z,15.81
2022-10-08T01:01:30.789Z,15.76
2022-10-08T01:04:06.744Z,15.74
2022-10-08T01:06:45.255Z,15.75
2022-10-08T01:09:21.709Z,15.72
2022-10-08T01:11:58.439Z,15.65
2022-10-08T01:14:40.384Z,15.67
2022-10-08T01:17:17.424Z,15.81
2022-10-08T01:20:19.239Z,15.90
2022-10-08T01:23:10.487Z,15.93
2022-10-08T01:25:50.698Z,15.84
2022-10-08T01:28:30.143Z,15.64
2022-10-08T01:31:08.127Z,15.64
2022-10-08T01:33:46.688Z,15.64
2022-10-08T01:36:20.945Z,15.58
2022-10-08T01:38:56.434Z,15.64
2022-10-08T01:41:31.251Z,15.74
2022-10-08T01:44:08.706Z,15.72
2022-10-08T01:46:45.327Z,15.49
2022-10-08T01:49:23.175Z,15.46
2022-10-08T01:52:01.771Z,15.45
2022-10-08T01:54:36.678Z,15.62
2022-10-08T01:57:10.577Z,15.67
2022-10-08T01:59:47.430Z,15.66
2022-10-08T02:02:23.671Z,15.62
2022-10-08T02:04:59.279Z,15.59
2022-10-08T02:07:37.381Z,15.59
2022-10-08T02:10:13.031Z,15.63
2022-10-08T02:12:45.876Z,15.66
2022-10-08T02:15:21.451Z,15.68
2022-10-08T02:17:57.797Z,15.64
2022-10-08T02:20:36.042Z,15.42
2022-10-08T02:23:15.167Z,15.34
2022-10-08T02:25:53.753Z,15.29
2022-10-08T02:28:30.975Z,15.26
2022-10-08T02:31:10.589Z,15.46
2022-10-08T02:33:45.761Z,15.46
2022-10-08T02:36:22.083Z,15.44
2022-10-08T02:38:58.981Z,15.42
2022-10-08T02:41:35.214Z,15.36
2022-10-08T02:44:18.440Z,15.36
2022-10-08T02:46:52.923Z,15.35
2022-10-08T02:49:30.387Z,15.34
2022-10-08T02:52:04.320Z,15.30
2022-10-08T02:54:39.621Z,15.27
2022-10-08T02:57:14.795Z,15.27
2022-10-08T02:59:48.388Z,15.24
2022-10-08T03:02:26.386Z,15.18
2022-10-08T03:05:02.714Z,15.12
2022-10-08T03:07:39.328Z,15.12
2022-10-08T03:10:13.191Z,15.07
2022-10-08T03:12:48.462Z,15.14
2022-10-08T03:15:21.875Z,15.10
2022-10-08T03:17:54.449Z,15.04
2022-10-08T03:20:30.351Z,15.03
2022-10-08T03:23:06.197Z,15.02
2022-10-08T03:25:40.994Z,14.99
2022-10-08T03:28:15.360Z,15.01
2022-10-08T03:30:49.715Z,14.97
2022-10-08T03:33:23.834Z,14.94
2022-10-08T03:35:55.963Z,14.84
2022-10-08T03:38:29.512Z,14.84
2022-10-08T03:41:05.612Z,14.87
2022-10-08T03:43:44.422Z,14.81
2022-10-08T03:46:19.195Z,14.78
2022-10-08T03:48:52.913Z,14.79
2022-10-08T03:51:26.557Z,14.79
2022-10-08T03:53:59.237Z,14.79
2022-10-08T03:56:33.291Z,14.81
2022-10-08T03:59:05.804Z,14.80
2022-10-08T04:01:38.541Z,14.83
2022-10-08T04:04:11.133Z,14.85
2022-10-08T04:06:45.808Z,14.80
2022-10-08T04:09:18.032Z,14.76
2022-10-08T04:11:51.986Z,14.79
2022-10-08T04:14:25.182Z,14.80
2022-10-08T04:17:00.343Z,14.78
2022-10-08T04:19:33.206Z,14.75
2022-10-08T04:22:05.743Z,14.73
2022-10-08T04:24:37.987Z,14.68
2022-10-08T04:27:09.800Z,14.65
2022-10-08T04:29:42.288Z,14.61
2022-10-08T04:32:14.226Z,14.65
2022-10-08T04:34:46.664Z,14.64
2022-10-08T04:37:20.415Z,14.60
2022-10-08T04:39:53.132Z,14.58
2022-10-08T04:42:27.030Z,14.57
2022-10-08T04:44:59.365Z,14.55
2022-10-08T04:47:33.432Z,14.58
2022-10-08T04:50:07.490Z,14.58
2022-10-08T04:52:41.092Z,14.56
2022-10-08T04:55:15.959Z,14.49
2022-10-08T04:57:51.719Z,14.42
2022-10-08T05:00:24.764Z,14.44
2022-10-08T05:02:59.277Z,14.48
2022-10-08T05:05:32.123Z,14.52
2022-10-08T05:08:05.880Z,14.51
2022-10-08T05:10:38.890Z,14.53
2022-10-08T05:13:11.066Z,14.54
2022-10-08T05:15:44.049Z,14.53
2022-10-08T05:18:17.546Z,14.53
2022-10-08T05:20:52.687Z,14.56
2022-10-08T05:23:24.976Z,14.70
2022-10-08T05:25:56.866Z,14.77
2022-10-08T05:28:30.604Z,14.78
2022-10-08T05:31:08.658Z,14.84
2022-10-08T05:33:41.488Z,14.92
2022-10-08T05:36:19.064Z,14.97
2022-10-08T05:38:59.065Z,15.05
2022-10-08T05:41:35.324Z,15.14
2022-10-08T05:44:09.760Z,15.21
2022-10-08T05:46:43.865Z,15.26
2022-10-08T05:49:20.993Z,15.34
2022-10-08T05:51:55.192Z,15.27
2022-10-08T05:54:27.871Z,15.37
2022-10-08T05:57:01.480Z,15.43
2022-10-08T05:59:34.196Z,15.48
2022-10-08T06:02:10.266Z,15.49
2022-10-08T06:04:43.814Z,15.56
2022-10-08T06:07:16.534Z,15.74
2022-10-08T06:09:52.333Z,15.83
2022-10-08T06:12:25.556Z,15.90
2022-10-08T06:14:59.594Z,15.97
2022-10-08T06:17:34.747Z,16.15
2022-10-08T06:20:09.663Z,16.34
2022-10-08T06:22:43.244Z,16.48
2022-10-08T06:25:17.617Z,16.63
2022-10-08T06:27:52.266Z,16.76
2022-10-08T06:30:27.996Z,16.82
2022-10-08T06:33:07.046Z,16.88
2022-10-08T06:35:40.198Z,17.16
2022-10-08T06:38:13.828Z,17.33
2022-10-08T06:40:47.024Z,17.49
2022-10-08T06:43:22.013Z,17.61
2022-10-08T06:45:55.616Z,17.78
2022-10-08T06:48:29.239Z,17.89
2022-10-08T06:51:06.304Z,17.88
2022-10-08T06:53:40.199Z,18.06
2022-10-08T06:56:19.264Z,18.18
2022-10-08T06:58:51.585Z,18.30
2022-10-08T07:01:31.855Z,18.50
2022-10-08T07:04:08.781Z,18.77
2022-10-08T07:06:41.904Z,19.04
2022-10-08T07:09:15.490Z,19.15
2022-10-08T07:11:48.426Z,19.24
2022-10-08T07:14:24.171Z,19.40
2022-10-08T07:16:57.254Z,19.61
2022-10-08T07:19:30.860Z,19.79
2022-10-08T07:22:03.777Z,19.93
2022-10-08T07:24:36.177Z,20.09
2022-10-08T07:27:09.972Z,20.19
2022-10-08T07:29:43.502Z,20.27
2022-10-08T07:32:17.156Z,20.32
2022-10-08T07:34:50.717Z,20.41
2022-10-08T07:37:23.139Z,20.54
2022-10-08T07:39:59.886Z,20.59
2022-10-08T07:42:32.794Z,20.61
2022-10-08T07:45:05.767Z,20.67
2022-10-08T07:47:39.375Z,20.78
2022-10-08T07:50:12.513Z,20.93
2022-10-08T07:52:45.292Z,21.06
2022-10-08T07:55:19.663Z,21.15
2022-10-08T07:57:52.723Z,21.18
2022-10-08T08:00:27.542Z,21.22
2022-10-08T08:03:00.348Z,21.34
2022-10-08T08:05:37.236Z,21.44
2022-10-08T08:08:09.617Z,21.57
2022-10-08T08:10:45.333Z,21.75
2022-10-08T08:13:18.132Z,21.89
2022-10-08T08:15:59.943Z,21.97
2022-10-08T08:18:34.461Z,22.09
2022-10-08T08:21:10.122Z,22.32
2022-10-08T08:23:47.950Z,22.51
2022-10-08T08:26:23.457Z,22.68
2022-10-08T08:28:58.173Z,22.82
2022-10-08T08:31:32.523Z,22.94
2022-10-08T08:34:08.026Z,23.06
2022-10-08T08:36:42.019Z,23.20
2022-10-08T08:39:18.851Z,23.38
2022-10-08T08:42:14.609Z,23.52
2022-10-08T08:44:48.708Z,23.67
2022-10-08T08:47:24.045Z,23.82
2022-10-08T08:49:59.174Z,23.97
2022-10-08T08:52:34.193Z,24.14
2022-10-08T08:55:12.825Z,24.26
2022-10-08T08:57:51.294Z,24.49
2022-10-08T09:00:36.305Z,24.67
2022-10-08T09:03:15.476Z,24.78
2022-10-08T09:05:49.713Z,24.83
2022-10-08T09:08:25.428Z,24.94
2022-10-08T09:11:00.635Z,24.99
2022-10-08T09:13:37.740Z,25.03
2022-10-08T09:16:12.888Z,25.11
2022-10-08T09:18:52.187Z,25.20
2022-10-08T09:21:28.336Z,25.20
2022-10-08T09:24:00.876Z,25.07
2022-10-08T09:26:35.892Z,25.08
2022-10-08T09:29:09.654Z,25.26
2022-10-08T09:31:48.905Z,25.21
2022-10-08T09:34:23.001Z,25.29
2022-10-08T09:37:06.479Z,25.36
2022-10-08T09:39:39.770Z,25.46
2022-10-08T09:42:18.305Z,25.47
2022-10-08T09:44:51.973Z,25.45
2022-10-08T09:47:25.880Z,25.44
2022-10-08T09:50:14.845Z,25.45
2022-10-08T09:52:47.772Z,25.42
2022-10-08T09:55:24.058Z,25.37
2022-10-08T09:58:00.560Z,25.34
2022-10-08T10:00:36.253Z,25.27
2022-10-08T10:03:19.450Z,25.27
2022-10-08T10:05:56.994Z,25.34
2022-10-08T10:09:07.208Z,25.40
2022-10-08T10:11:42.874Z,25.41
2022-10-08T10:14:21.758Z,25.40
2022-10-08T10:16:59.938Z,25.45
2022-10-08T10:19:45.063Z,25.40
2022-10-08T10:22:24.638Z,25.40
2022-10-08T10:25:04.541Z,25.42
2022-10-08T10:27:39.633Z,25.42
2022-10-08T10:30:19.129Z,25.33
2022-10-08T10:32:54.726Z,25.29
2022-10-08T10:35:28.572Z,25.14
2022-10-08T10:38:10.162Z,24.99
2022-10-08T10:40:46.181Z,24.95
2022-10-08T10:43:25.395Z,25.00
2022-10-08T10:46:16.385Z,25.01
2022-10-08T10:48:50.816Z,25.03
2022-10-08T10:51:54.565Z,25.10
2022-10-08T10:54:46.985Z,25.13
2022-10-08T10:57:31.020Z,25.16
2022-10-08T11:00:10.273Z,25.22
2022-10-08T11:02:48.100Z,25.30
2022-10-08T11:05:24.327Z,25.30
2022-10-08T11:08:15.509Z,25.32
2022-10-08T11:11:00.623Z,25.28
2022-10-08T11:13:47.316Z,25.27
2022-10-08T11:16:36.658Z,25.32
2022-10-08T11:19:17.527Z,25.38
2022-10-08T11:21:58.694Z,25.44
2022-10-08T11:24:42.397Z,25.43
2022-10-08T11:27:19.637Z,25.41
2022-10-08T11:29:56.752Z,25.39
2022-10-08T11:32:31.038Z,25.40
2022-10-08T11:35:18.965Z,25.47
2022-10-08T11:37:56.202Z,25.61
2022-10-08T11:40:32.306Z,25.71
2022-10-08T11:43:08.805Z,25.83
2022-10-08T11:45:47.092Z,25.94
2022-10-08T11:48:36.743Z,26.01
2022-10-08T11:51:30.350Z,26.09
2022-10-08T11:54:08.422Z,26.26
2022-10-08T11:56:44.484Z,26.42
2022-10-08T11:59:40.645Z,26.52
2022-10-08T12:02:25.853Z,26.65
2022-10-08T12:05:00.396Z,26.66
2022-10-08T12:07:37.803Z,26.56
2022-10-08T12:10:29.705Z,26.50
2022-10-08T12:13:24.467Z,26.53
2022-10-08T12:16:08.283Z,26.65
2022-10-08T12:18:52.724Z,26.84
2022-10-08T12:21:55.440Z,26.97
2022-10-08T12:24:58.839Z,27.14
2022-10-08T12:27:34.669Z,27.30
2022-10-08T12:30:09.729Z,27.44
2022-10-08T12:33:00.872Z,27.71
2022-10-08T12:35:38.807Z,27.89
2022-10-08T12:38:31.677Z,27.93
2022-10-08T12:41:16.022Z,28.01
2022-10-08T12:43:53.361Z,28.00
2022-10-08T12:46:34.692Z,28.03
2022-10-08T12:49:20.245Z,28.20
2022-10-08T12:51:59.640Z,28.26
2022-10-08T12:54:35.579Z,28.21
2022-10-08T12:57:13.597Z,28.23
2022-10-08T12:59:49.815Z,28.26
2022-10-08T13:02:40.274Z,28.36
2022-10-08T13:05:27.662Z,28.42
2022-10-08T13:08:12.016Z,28.52
2022-10-08T13:10:46.896Z,28.58
2022-10-08T13:13:45.022Z,28.53
2022-10-08T13:16:18.294Z,28.35
2022-10-08T13:18:53.760Z,28.17
2022-10-08T13:21:42.520Z,28.08
2022-10-08T13:24:38.243Z,27.88
2022-10-08T13:27:25.771Z,27.62
2022-10-08T13:30:01.468Z,27.48
2022-10-08T13:32:40.482Z,27.43
2022-10-08T13:35:23.698Z,27.30
2022-10-08T13:37:58.546Z,27.09
2022-10-08T13:40:31.621Z,26.93
2022-10-08T13:43:03.969Z,26.76
2022-10-08T13:45:42.143Z,26.60
2022-10-08T13:48:16.268Z,26.43
2022-10-08T13:50:52.550Z,26.24
2022-10-08T13:53:42.449Z,26.08
2022-10-08T13:56:23.357Z,26.03
2022-10-08T13:59:03.041Z,25.92
2022-10-08T14:01:35.104Z,25.94
2022-10-08T14:04:07.489Z,25.90
2022-10-08T14:06:40.111Z,25.90
2022-10-08T14:09:18.838Z,25.89
2022-10-08T14:11:56.330Z,25.81
2022-10-08T14:14:30.521Z,25.70
2022-10-08T14:17:05.234Z,25.59
2022-10-08T14:19:37.195Z,25.48
2022-10-08T14:22:14.101Z,25.36
2022-10-08T14:24:47.298Z,25.24
2022-10-08T14:27:19.960Z,25.25
2022-10-08T14:29:53.279Z,25.21
2022-10-08T14:32:27.140Z,25.16
2022-10-08T14:34:59.748Z,25.08
2022-10-08T14:37:31.613Z,25.15
2022-10-08T14:40:10.250Z,24.98
2022-10-08T14:42:42.716Z,24.95
2022-10-08T14:45:16.700Z,24.93
2022-10-08T14:47:53.053Z,24.92
2022-10-08T14:50:26.928Z,25.20
2022-10-08T14:53:00.783Z,25.39
2022-10-08T14:55:40.961Z,25.45
2022-10-08T14:58:23.674Z,25.36
2022-10-08T15:00:59.320Z,25.28
2022-10-08T15:03:31.838Z,25.15
2022-10-08T15:06:05.137Z,25.06
2022-10-08T15:08:41.242Z,24.93
2022-10-08T15:11:14.062Z,24.86
2022-10-08T15:13:46.843Z,24.81
2022-10-08T15:16:19.341Z,24.70
2022-10-08T15:18:51.689Z,24.59
2022-10-08T15:21:24.648Z,24.48
2022-10-08T15:23:59.190Z,24.37
2022-10-08T15:26:33.106Z,24.24
2022-10-08T15:29:05.833Z,24.08
2022-10-08T15:31:37.925Z,23.91
2022-10-08T15:34:14.227Z,23.77
2022-10-08T15:36:46.715Z,23.63
2022-10-08T15:39:23.341Z,23.51
2022-10-08T15:42:00.991Z,23.42
2022-10-08T15:44:34.987Z,23.26
2022-10-08T15:47:11.849Z,23.19
2022-10-08T15:49:45.912Z,23.10
2022-10-08T15:52:19.923Z,23.02
2022-10-08T15:54:52.171Z,22.96
2022-10-08T15:57:24.585Z,22.87
2022-10-08T15:59:58.400Z,22.81
2022-10-08T16:02:33.181Z,22.75
2022-10-08T16:05:06.166Z,22.66
2022-10-08T16:07:39.156Z,22.55
2022-10-08T16:10:11.661Z,22.48
2022-10-08T16:12:43.730Z,22.42
2022-10-08T16:15:15.580Z,22.38
2022-10-08T16:17:51.931Z,22.34
2022-10-08T16:20:24.382Z,22.26
2022-10-08T16:22:57.371Z,22.21
2022-10-08T16:25:29.374Z,22.16
2022-10-08T16:28:01.392Z,22.10
2022-10-08T16:30:37.717Z,22.00
2022-10-08T16:33:09.702Z,21.93
2022-10-08T16:35:42.113Z,21.87
2022-10-08T16:38:15.000Z,21.84
2022-10-08T16:40:48.917Z,21.80
2022-10-08T16:43:25.777Z,21.75
2022-10-08T16:45:58.331Z,21.71
2022-10-08T16:48:33.612Z,21.66
2022-10-08T16:51:08.536Z,21.60
2022-10-08T16:53:41.155Z,21.56
2022-10-08T16:56:13.289Z,21.55
2022-10-08T16:58:46.174Z,21.49
2022-10-08T17:01:19.408Z,21.42
2022-10-08T17:03:54.231Z,21.32
2022-10-08T17:06:28.260Z,21.24
2022-10-08T17:09:00.737Z,21.23
2022-10-08T17:11:34.752Z,21.04
2022-10-08T17:14:08.460Z,20.86
2022-10-08T17:16:43.449Z,20.76
2022-10-08T17:19:18.178Z,20.72
2022-10-08T17:21:52.085Z,20.69
2022-10-08T17:24:26.049Z,20.66
2022-10-08T17:26:58.857Z,20.62
2022-10-08T17:29:36.215Z,20.65
2022-10-08T17:32:09.605Z,20.60
2022-10-08T17:34:42.412Z,20.66
2022-10-08T17:37:15.730Z,20.82
2022-10-08T17:39:47.522Z,20.67
2022-10-08T17:42:21.361Z,20.62
2022-10-08T17:44:55.873Z,20.57
2022-10-08T17:47:29.410Z,20.49
2022-10-08T17:50:04.539Z,20.45
2022-10-08T17:52:36.967Z,20.37
2022-10-08T17:55:16.624Z,20.35
2022-10-08T17:57:51.727Z,20.30
2022-10-08T18:00:26.165Z,20.45
2022-10-08T18:02:58.767Z,20.51
2022-10-08T18:05:30.704Z,20.51
2022-10-08T18:08:03.882Z,20.41
2022-10-08T18:10:40.251Z,20.33
2022-10-08T18:13:12.796Z,20.39
2022-10-08T18:15:45.500Z,20.47
2022-10-08T18:18:18.191Z,20.49
2022-10-08T18:20:58.380Z,20.49
2022-10-08T18:23:31.225Z,20.49
2022-10-08T18:26:19.630Z,20.53
2022-10-08T18:28:52.671Z,20.40
2022-10-08T18:31:27.370Z,20.38
2022-10-08T18:34:03.895Z,20.51
2022-10-08T18:36:43.558Z,20.60
2022-10-08T18:39:17.707Z,20.62
2022-10-08T18:41:57.322Z,20.60
2022-10-08T18:44:32.433Z,20.60
2022-10-08T18:47:05.619Z,20.60
2022-10-08T18:49:40.221Z,20.59
2022-10-08T18:52:19.139Z,20.54
2022-10-08T18:54:53.993Z,20.52
2022-10-08T18:57:25.998Z,20.37
2022-10-08T18:59:59.050Z,20.31
2022-10-08T19:02:35.461Z,20.29
2022-10-08T19:05:12.181Z,20.27
2022-10-08T19:07:46.651Z,20.25
2022-10-08T19:10:19.587Z,20.25
2022-10-08T19:12:54.442Z,20.27
2022-10-08T19:15:33.497Z,20.27
2022-10-08T19:18:07.733Z,20.27
2022-10-08T19:20:39.657Z,20.27
2022-10-08T19:23:16.421Z,20.27
2022-10-08T19:25:48.501Z,20.25
2022-10-08T19:28:25.215Z,20.21
2022-10-08T19:30:58.727Z,20.21
2022-10-08T19:33:31.415Z,20.19
2022-10-08T19:36:06.341Z,20.17
2022-10-08T19:38:40.489Z,20.15
2022-10-08T19:41:14.247Z,20.16
2022-10-08T19:43:48.704Z,20.20
2022-10-08T19:46:23.314Z,20.20
2022-10-08T19:48:59.062Z,20.21
2022-10-08T19:51:32.956Z,20.22
2022-10-08T19:54:06.330Z,20.24
2022-10-08T19:56:42.730Z,20.29
2022-10-08T19:59:19.419Z,20.29
2022-10-08T20:01:52.182Z,20.23
2022-10-08T20:04:24.704Z,20.38
2022-10-08T20:07:02.597Z,20.43
2022-10-08T20:09:37.522Z,20.44
2022-10-08T20:12:11.280Z,20.44
2022-10-08T20:14:43.410Z,20.34
2022-10-08T20:17:20.504Z,20.22
2022-10-08T20:20:09.357Z,20.21
2022-10-08T20:22:51.458Z,20.20
2022-10-08T20:25:25.298Z,20.15
2022-10-08T20:27:58.965Z,20.12
2022-10-08T20:30:30.888Z,20.12
2022-10-08T20:33:04.036Z,20.19
2022-10-08T20:35:40.229Z,20.09
2022-10-08T20:38:13.858Z,20.05
2022-10-08T20:40:46.850Z,20.00
2022-10-08T20:43:20.054Z,20.01
2022-10-08T20:45:53.522Z,20.00
2022-10-08T20:48:25.679Z,19.99
2022-10-08T20:51:07.218Z,19.99
2022-10-08T20:53:40.300Z,19.98
2022-10-08T20:56:15.005Z,19.97
2022-10-08T20:58:47.282Z,19.98
2022-10-08T21:01:23.480Z,19.99
2022-10-08T21:03:56.479Z,20.15
2022-10-08T21:06:31.790Z,20.16
2022-10-08T21:09:06.850Z,20.09
2022-10-08T21:11:43.488Z,19.95
2022-10-08T21:14:18.235Z,19.91
2022-10-08T21:16:50.521Z,19.97
2022-10-08T21:19:26.241Z,20.06
2022-10-08T21:21:59.429Z,20.03
2022-10-08T21:24:31.434Z,19.97
2022-10-08T21:27:03.539Z,19.92
2022-10-08T21:29:38.188Z,19.89
2022-10-08T21:32:10.784Z,19.73
2022-10-08T21:34:42.511Z,19.66
2022-10-08T21:37:16.237Z,19.61
2022-10-08T21:39:48.996Z,19.58
2022-10-08T21:42:21.584Z,19.54
2022-10-08T21:44:55.162Z,19.51
2022-10-08T21:47:29.047Z,19.66
2022-10-08T21:50:02.385Z,19.71
2022-10-08T21:52:35.778Z,19.72
2022-10-08T21:55:09.839Z,19.72
2022-10-08T21:57:44.846Z,19.70
2022-10-08T22:00:18.234Z,19.69
2022-10-08T22:02:51.576Z,19.69
2022-10-08T22:05:29.987Z,19.68
2022-10-08T22:08:03.443Z,19.68
2022-10-08T22:10:39.609Z,19.72
2022-10-08T22:13:12.973Z,19.69
2022-10-08T22:15:53.919Z,19.64
2022-10-08T22:18:31.928Z,19.66
2022-10-08T22:21:07.583Z,19.64
2022-10-08T22:23:39.959Z,19.61
2022-10-08T22:26:14.393Z,19.61
2022-10-08T22:28:48.575Z,19.61
2022-10-08T22:31:23.352Z,19.62
2022-10-08T22:33:57.488Z,19.65
2022-10-08T22:36:34.191Z,19.67
2022-10-08T22:39:10.123Z,19.65
2022-10-08T22:41:42.453Z,19.55
2022-10-08T22:44:15.031Z,19.49
2022-10-08T22:46:47.543Z,19.47
2022-10-08T22:49:22.098Z,19.43
2022-10-08T22:51:55.537Z,19.38
2022-10-08T22:54:27.816Z,19.35
2022-10-08T22:57:02.645Z,19.35
2022-10-08T22:59:35.208Z,19.34
2022-10-08T23:02:08.359Z,19.26
2022-10-08T23:04:41.357Z,19.19
2022-10-08T23:07:14.864Z,19.15
2022-10-08T23:09:46.965Z,19.06
2022-10-08T23:12:20.041Z,18.84
2022-10-08T23:14:52.016Z,18.69
2022-10-08T23:17:24.635Z,18.60
2022-10-08T23:19:56.983Z,18.46
2022-10-08T23:22:30.806Z,18.37
2022-10-08T23:25:04.713Z,18.33
2022-10-08T23:27:38.321Z,18.24
2022-10-08T23:30:31.373Z,18.15
2022-10-08T23:33:07.651Z,18.11
2022-10-08T23:35:45.621Z,18.04
2022-10-08T23:38:24.971Z,17.95
2022-10-08T23:41:03.786Z,17.91
2022-10-08T23:43:38.436Z,17.91
2022-10-08T23:46:13.546Z,17.90
2022-10-08T23:48:45.905Z,17.84
2022-10-08T23:51:20.648Z,17.82
2022-10-08T23:53:55.065Z,17.79
2022-10-08T23:56:27.742Z,17.74
2022-10-08T23:59:01.579Z,17.71
